sensor_id;sensor_type;location;lat;lon;timestamp;P1;durP1;ratioP1;P2;durP2;ratioP2
9294;SDS011;4686;44.496;11.324;2022-09-30T00:01:15;2.50;;;1.83;;
9294;SDS011;4686;44.496;11.324;2022-09-30T00:03:42;5.10;;;2.40;;
9294;SDS011;4686;44.496;11.324;2022-09-30T00:06:18;5.37;;;2.30;;
9294;SDS011;4686;44.496;11.324;2022-09-30T00:08:47;2.40;;;2.20;;
9294;SDS011;4686;44.496;11.324;2022-09-30T00:11:16;2.30;;;2.07;;
9294;SDS011;4686;44.496;11.324;2022-09-30T00:13:46;5.13;;;2.20;;
9294;SDS011;4686;44.496;11.324;2022-09-30T00:16:16;2.83;;;2.43;;
9294;SDS011;4686;44.496;11.324;2022-09-30T00:18:45;2.70;;;2.37;;
9294;SDS011;4686;44.496;11.324;2022-09-30T00:21:15;2.20;;;2.00;;
9294;SDS011;4686;44.496;11.324;2022-09-30T00:23:43;2.83;;;1.97;;
9294;SDS011;4686;44.496;11.324;2022-09-30T00:26:12;3.57;;;2.33;;
9294;SDS011;4686;44.496;11.324;2022-09-30T00:28:40;2.17;;;2.07;;
9294;SDS011;4686;44.496;11.324;2022-09-30T00:31:09;2.30;;;2.00;;
9294;SDS011;4686;44.496;11.324;2022-09-30T00:33:42;2.40;;;2.20;;
9294;SDS011;4686;44.496;11.324;2022-09-30T00:36:29;2.93;;;2.00;;
9294;SDS011;4686;44.496;11.324;2022-09-30T00:38:57;2.27;;;2.07;;
9294;SDS011;4686;44.496;11.324;2022-09-30T00:41:28;4.03;;;2.17;;
9294;SDS011;4686;44.496;11.324;2022-09-30T00:43:57;2.37;;;2.17;;
9294;SDS011;4686;44.496;11.324;2022-09-30T00:46:27;4.07;;;2.00;;
9294;SDS011;4686;44.496;11.324;2022-09-30T00:48:57;2.40;;;2.30;;
9294;SDS011;4686;44.496;11.324;2022-09-30T00:51:44;2.10;;;2.00;;
9294;SDS011;4686;44.496;11.324;2022-09-30T00:54:14;2.10;;;2.00;;
9294;SDS011;4686;44.496;11.324;2022-09-30T00:56:43;2.20;;;2.00;;
9294;SDS011;4686;44.496;11.324;2022-09-30T00:59:12;2.53;;;2.00;;
9294;SDS011;4686;44.496;11.324;2022-09-30T01:01:42;3.97;;;2.20;;
9294;SDS011;4686;44.496;11.324;2022-09-30T01:04:12;2.00;;;1.90;;
9294;SDS011;4686;44.496;11.324;2022-09-30T01:06:40;3.13;;;2.00;;
9294;SDS011;4686;44.496;11.324;2022-09-30T01:09:08;2.27;;;2.10;;
9294;SDS011;4686;44.496;11.324;2022-09-30T01:11:39;2.07;;;1.97;;
9294;SDS011;4686;44.496;11.324;2022-09-30T01:14:08;2.00;;;1.90;;
9294;SDS011;4686;44.496;11.324;2022-09-30T01:16:44;1.80;;;1.70;;
9294;SDS011;4686;44.496;11.324;2022-09-30T01:22:04;2.70;;;2.27;;
9294;SDS011;4686;44.496;11.324;2022-09-30T01:24:39;1.97;;;1.80;;
9294;SDS011;4686;44.496;11.324;2022-09-30T01:27:15;2.10;;;1.90;;
9294;SDS011;4686;44.496;11.324;2022-09-30T01:29:59;2.00;;;1.90;;
9294;SDS011;4686;44.496;11.324;2022-09-30T01:32:43;1.97;;;1.87;;
9294;SDS011;4686;44.496;11.324;2022-09-30T01:35:15;2.00;;;1.90;;
9294;SDS011;4686;44.496;11.324;2022-09-30T01:37:47;2.07;;;1.73;;
9294;SDS011;4686;44.496;11.324;2022-09-30T01:40:19;2.00;;;1.80;;
9294;SDS011;4686;44.496;11.324;2022-09-30T01:42:50;2.27;;;2.07;;
9294;SDS011;4686;44.496;11.324;2022-09-30T01:45:21;2.10;;;2.00;;
9294;SDS011;4686;44.496;11.324;2022-09-30T01:47:55;1.90;;;1.80;;
9294;SDS011;4686;44.496;11.324;2022-09-30T01:50:26;3.87;;;1.90;;
9294;SDS011;4686;44.496;11.324;2022-09-30T01:52:57;1.90;;;1.80;;
9294;SDS011;4686;44.496;11.324;2022-09-30T01:55:26;1.80;;;1.70;;
9294;SDS011;4686;44.496;11.324;2022-09-30T01:57:56;2.33;;;1.97;;
9294;SDS011;4686;44.496;11.324;2022-09-30T02:00:27;2.10;;;1.90;;
9294;SDS011;4686;44.496;11.324;2022-09-30T02:02:57;2.00;;;1.80;;
9294;SDS011;4686;44.496;11.324;2022-09-30T02:05:26;1.97;;;1.80;;
9294;SDS011;4686;44.496;11.324;2022-09-30T02:07:56;2.00;;;1.90;;
9294;SDS011;4686;44.496;11.324;2022-09-30T02:10:26;2.00;;;1.90;;
9294;SDS011;4686;44.496;11.324;2022-09-30T02:12:56;2.07;;;1.87;;
9294;SDS011;4686;44.496;11.324;2022-09-30T02:15:29;1.97;;;1.87;;
9294;SDS011;4686;44.496;11.324;2022-09-30T02:18:02;2.00;;;1.90;;
9294;SDS011;4686;44.496;11.324;2022-09-30T02:20:31;2.00;;;1.80;;
9294;SDS011;4686;44.496;11.324;2022-09-30T02:23:01;1.90;;;1.80;;
9294;SDS011;4686;44.496;11.324;2022-09-30T02:25:30;3.47;;;2.23;;
9294;SDS011;4686;44.496;11.324;2022-09-30T02:28:00;2.50;;;2.13;;
9294;SDS011;4686;44.496;11.324;2022-09-30T02:30:32;2.10;;;2.00;;
9294;SDS011;4686;44.496;11.324;2022-09-30T02:33:00;4.57;;;2.03;;
9294;SDS011;4686;44.496;11.324;2022-09-30T02:35:33;2.10;;;2.00;;
9294;SDS011;4686;44.496;11.324;2022-09-30T02:38:02;1.93;;;1.83;;
9294;SDS011;4686;44.496;11.324;2022-09-30T02:40:32;2.03;;;1.87;;
9294;SDS011;4686;44.496;11.324;2022-09-30T02:43:01;2.17;;;2.03;;
9294;SDS011;4686;44.496;11.324;2022-09-30T02:45:29;2.70;;;1.90;;
9294;SDS011;4686;44.496;11.324;2022-09-30T02:48:02;2.70;;;2.50;;
9294;SDS011;4686;44.496;11.324;2022-09-30T02:50:34;3.00;;;2.17;;
9294;SDS011;4686;44.496;11.324;2022-09-30T02:53:06;1.90;;;1.80;;
9294;SDS011;4686;44.496;11.324;2022-09-30T02:55:39;2.20;;;2.00;;
9294;SDS011;4686;44.496;11.324;2022-09-30T02:58:17;4.13;;;2.00;;
9294;SDS011;4686;44.496;11.324;2022-09-30T03:00:45;2.10;;;1.90;;
9294;SDS011;4686;44.496;11.324;2022-09-30T03:03:17;2.10;;;2.00;;
9294;SDS011;4686;44.496;11.324;2022-09-30T03:05:47;2.60;;;2.10;;
9294;SDS011;4686;44.496;11.324;2022-09-30T03:08:15;4.10;;;2.00;;
9294;SDS011;4686;44.496;11.324;2022-09-30T03:10:42;2.67;;;2.20;;
9294;SDS011;4686;44.496;11.324;2022-09-30T03:13:15;2.00;;;1.90;;
9294;SDS011;4686;44.496;11.324;2022-09-30T03:15:46;2.33;;;2.17;;
9294;SDS011;4686;44.496;11.324;2022-09-30T03:18:23;4.60;;;2.10;;
9294;SDS011;4686;44.496;11.324;2022-09-30T03:20:58;2.80;;;1.93;;
9294;SDS011;4686;44.496;11.324;2022-09-30T03:23:35;2.30;;;2.10;;
9294;SDS011;4686;44.496;11.324;2022-09-30T03:26:09;2.20;;;1.90;;
9294;SDS011;4686;44.496;11.324;2022-09-30T03:28:43;3.13;;;2.20;;
9294;SDS011;4686;44.496;11.324;2022-09-30T03:31:15;2.10;;;2.00;;
9294;SDS011;4686;44.496;11.324;2022-09-30T03:33:47;2.30;;;2.20;;
9294;SDS011;4686;44.496;11.324;2022-09-30T03:36:21;2.10;;;2.00;;
9294;SDS011;4686;44.496;11.324;2022-09-30T03:38:51;3.53;;;2.20;;
9294;SDS011;4686;44.496;11.324;2022-09-30T03:41:22;3.07;;;2.17;;
9294;SDS011;4686;44.496;11.324;2022-09-30T03:43:54;2.30;;;1.90;;
9294;SDS011;4686;44.496;11.324;2022-09-30T03:46:25;2.17;;;2.07;;
9294;SDS011;4686;44.496;11.324;2022-09-30T03:48:54;2.27;;;2.00;;
9294;SDS011;4686;44.496;11.324;2022-09-30T03:51:25;2.90;;;2.07;;
9294;SDS011;4686;44.496;11.324;2022-09-30T03:53:53;2.10;;;1.90;;
9294;SDS011;4686;44.496;11.324;2022-09-30T03:56:24;2.30;;;2.10;;
9294;SDS011;4686;44.496;11.324;2022-09-30T03:58:52;2.30;;;2.10;;
9294;SDS011;4686;44.496;11.324;2022-09-30T04:01:21;2.00;;;1.90;;
9294;SDS011;4686;44.496;11.324;2022-09-30T04:03:49;2.90;;;1.90;;
9294;SDS011;4686;44.496;11.324;2022-09-30T04:06:18;3.50;;;2.27;;
9294;SDS011;4686;44.496;11.324;2022-09-30T04:08:48;2.33;;;2.13;;
9294;SDS011;4686;44.496;11.324;2022-09-30T04:11:17;4.73;;;2.20;;
9294;SDS011;4686;44.496;11.324;2022-09-30T04:13:45;2.40;;;2.30;;
9294;SDS011;4686;44.496;11.324;2022-09-30T04:16:20;2.20;;;2.00;;
9294;SDS011;4686;44.496;11.324;2022-09-30T04:18:49;4.90;;;2.73;;
9294;SDS011;4686;44.496;11.324;2022-09-30T04:21:45;3.47;;;2.80;;
9294;SDS011;4686;44.496;11.324;2022-09-30T04:24:14;4.50;;;2.60;;
9294;SDS011;4686;44.496;11.324;2022-09-30T04:26:41;3.33;;;3.13;;
9294;SDS011;4686;44.496;11.324;2022-09-30T04:29:11;4.30;;;3.40;;
9294;SDS011;4686;44.496;11.324;2022-09-30T04:31:39;3.00;;;2.80;;
9294;SDS011;4686;44.496;11.324;2022-09-30T04:34:06;3.80;;;3.50;;
9294;SDS011;4686;44.496;11.324;2022-09-30T04:36:39;5.63;;;3.63;;
9294;SDS011;4686;44.496;11.324;2022-09-30T04:39:07;3.50;;;3.20;;
9294;SDS011;4686;44.496;11.324;2022-09-30T04:41:36;3.03;;;2.73;;
9294;SDS011;4686;44.496;11.324;2022-09-30T04:44:04;3.77;;;3.47;;
9294;SDS011;4686;44.496;11.324;2022-09-30T04:46:34;4.73;;;3.10;;
9294;SDS011;4686;44.496;11.324;2022-09-30T04:49:02;4.50;;;2.77;;
9294;SDS011;4686;44.496;11.324;2022-09-30T04:51:32;3.53;;;2.20;;
9294;SDS011;4686;44.496;11.324;2022-09-30T04:54:00;6.73;;;2.50;;
9294;SDS011;4686;44.496;11.324;2022-09-30T04:56:28;4.30;;;2.27;;
9294;SDS011;4686;44.496;11.324;2022-09-30T05:01:43;4.73;;;2.60;;
9294;SDS011;4686;44.496;11.324;2022-09-30T05:04:11;4.57;;;3.60;;
9294;SDS011;4686;44.496;11.324;2022-09-30T05:06:46;2.57;;;2.37;;
9294;SDS011;4686;44.496;11.324;2022-09-30T05:09:23;4.33;;;2.00;;
9294;SDS011;4686;44.496;11.324;2022-09-30T05:11:54;2.93;;;2.20;;
9294;SDS011;4686;44.496;11.324;2022-09-30T05:14:22;3.10;;;2.00;;
9294;SDS011;4686;44.496;11.324;2022-09-30T05:16:51;2.40;;;2.20;;
9294;SDS011;4686;44.496;11.324;2022-09-30T05:19:19;4.17;;;2.67;;
9294;SDS011;4686;44.496;11.324;2022-09-30T05:21:46;2.90;;;2.00;;
9294;SDS011;4686;44.496;11.324;2022-09-30T05:24:14;2.40;;;2.20;;
9294;SDS011;4686;44.496;11.324;2022-09-30T05:26:41;3.40;;;2.80;;
9294;SDS011;4686;44.496;11.324;2022-09-30T05:29:09;3.70;;;2.20;;
9294;SDS011;4686;44.496;11.324;2022-09-30T05:31:36;6.00;;;2.47;;
9294;SDS011;4686;44.496;11.324;2022-09-30T05:34:06;3.30;;;2.97;;
9294;SDS011;4686;44.496;11.324;2022-09-30T05:36:34;4.23;;;3.83;;
9294;SDS011;4686;44.496;11.324;2022-09-30T05:39:02;3.00;;;2.63;;
9294;SDS011;4686;44.496;11.324;2022-09-30T05:41:29;9.93;;;2.40;;
9294;SDS011;4686;44.496;11.324;2022-09-30T05:43:57;2.40;;;2.30;;
9294;SDS011;4686;44.496;11.324;2022-09-30T05:46:25;5.93;;;3.10;;
9294;SDS011;4686;44.496;11.324;2022-09-30T05:48:54;4.03;;;3.57;;
9294;SDS011;4686;44.496;11.324;2022-09-30T05:51:22;6.70;;;2.90;;
9294;SDS011;4686;44.496;11.324;2022-09-30T05:53:52;3.90;;;2.77;;
9294;SDS011;4686;44.496;11.324;2022-09-30T05:56:24;4.00;;;3.70;;
9294;SDS011;4686;44.496;11.324;2022-09-30T05:58:51;5.63;;;3.30;;
9294;SDS011;4686;44.496;11.324;2022-09-30T06:01:19;3.80;;;2.80;;
9294;SDS011;4686;44.496;11.324;2022-09-30T06:03:46;3.07;;;2.77;;
9294;SDS011;4686;44.496;11.324;2022-09-30T06:06:14;3.03;;;2.47;;
9294;SDS011;4686;44.496;11.324;2022-09-30T06:08:45;6.17;;;3.10;;
9294;SDS011;4686;44.496;11.324;2022-09-30T06:11:13;4.90;;;2.60;;
9294;SDS011;4686;44.496;11.324;2022-09-30T06:13:46;4.07;;;2.80;;
9294;SDS011;4686;44.496;11.324;2022-09-30T06:16:17;2.80;;;2.60;;
9294;SDS011;4686;44.496;11.324;2022-09-30T06:18:48;2.83;;;2.60;;
9294;SDS011;4686;44.496;11.324;2022-09-30T06:21:16;2.93;;;2.40;;
9294;SDS011;4686;44.496;11.324;2022-09-30T06:23:44;4.13;;;2.63;;
9294;SDS011;4686;44.496;11.324;2022-09-30T06:26:13;4.23;;;2.37;;
9294;SDS011;4686;44.496;11.324;2022-09-30T06:28:41;3.20;;;2.50;;
9294;SDS011;4686;44.496;11.324;2022-09-30T06:31:09;5.00;;;2.20;;
9294;SDS011;4686;44.496;11.324;2022-09-30T06:33:37;4.80;;;2.23;;
9294;SDS011;4686;44.496;11.324;2022-09-30T06:36:05;2.90;;;2.60;;
9294;SDS011;4686;44.496;11.324;2022-09-30T06:38:32;6.07;;;3.60;;
9294;SDS011;4686;44.496;11.324;2022-09-30T06:41:03;8.43;;;3.33;;
9294;SDS011;4686;44.496;11.324;2022-09-30T06:43:31;6.90;;;3.17;;
9294;SDS011;4686;44.496;11.324;2022-09-30T06:45:58;4.83;;;3.00;;
9294;SDS011;4686;44.496;11.324;2022-09-30T06:48:26;4.53;;;2.60;;
9294;SDS011;4686;44.496;11.324;2022-09-30T06:50:56;4.27;;;2.87;;
9294;SDS011;4686;44.496;11.324;2022-09-30T06:53:24;4.97;;;2.80;;
9294;SDS011;4686;44.496;11.324;2022-09-30T06:55:56;24.97;;;16.07;;
9294;SDS011;4686;44.496;11.324;2022-09-30T06:58:25;12.83;;;10.27;;
9294;SDS011;4686;44.496;11.324;2022-09-30T07:00:55;6.97;;;5.37;;
9294;SDS011;4686;44.496;11.324;2022-09-30T07:03:25;6.43;;;4.00;;
9294;SDS011;4686;44.496;11.324;2022-09-30T07:05:54;8.00;;;4.80;;
9294;SDS011;4686;44.496;11.324;2022-09-30T07:08:23;7.90;;;2.90;;
9294;SDS011;4686;44.496;11.324;2022-09-30T07:10:53;11.20;;;5.80;;
9294;SDS011;4686;44.496;11.324;2022-09-30T07:13:21;9.00;;;3.23;;
9294;SDS011;4686;44.496;11.324;2022-09-30T07:15:50;7.23;;;3.40;;
9294;SDS011;4686;44.496;11.324;2022-09-30T07:18:19;10.27;;;3.43;;
9294;SDS011;4686;44.496;11.324;2022-09-30T07:20:47;10.93;;;7.23;;
9294;SDS011;4686;44.496;11.324;2022-09-30T07:23:16;7.87;;;6.93;;
9294;SDS011;4686;44.496;11.324;2022-09-30T07:25:49;6.43;;;4.30;;
9294;SDS011;4686;44.496;11.324;2022-09-30T07:28:18;12.70;;;5.73;;
9294;SDS011;4686;44.496;11.324;2022-09-30T07:30:45;5.60;;;3.87;;
9294;SDS011;4686;44.496;11.324;2022-09-30T07:33:14;5.10;;;2.80;;
9294;SDS011;4686;44.496;11.324;2022-09-30T07:35:49;4.07;;;2.77;;
9294;SDS011;4686;44.496;11.324;2022-09-30T07:38:18;3.17;;;2.40;;
9294;SDS011;4686;44.496;11.324;2022-09-30T07:40:53;3.30;;;3.00;;
9294;SDS011;4686;44.496;11.324;2022-09-30T07:43:22;2.87;;;2.67;;
9294;SDS011;4686;44.496;11.324;2022-09-30T07:45:49;3.93;;;3.20;;
9294;SDS011;4686;44.496;11.324;2022-09-30T07:48:22;3.10;;;2.80;;
9294;SDS011;4686;44.496;11.324;2022-09-30T07:51:07;3.73;;;2.63;;
9294;SDS011;4686;44.496;11.324;2022-09-30T07:53:35;9.60;;;3.00;;
9294;SDS011;4686;44.496;11.324;2022-09-30T07:56:03;3.83;;;2.60;;
9294;SDS011;4686;44.496;11.324;2022-09-30T07:58:31;6.37;;;4.77;;
9294;SDS011;4686;44.496;11.324;2022-09-30T08:00:59;3.67;;;3.37;;
9294;SDS011;4686;44.496;11.324;2022-09-30T08:03:28;3.40;;;3.10;;
9294;SDS011;4686;44.496;11.324;2022-09-30T08:05:56;2.63;;;2.43;;
9294;SDS011;4686;44.496;11.324;2022-09-30T08:08:29;5.13;;;2.97;;
9294;SDS011;4686;44.496;11.324;2022-09-30T08:10:59;7.33;;;5.73;;
9294;SDS011;4686;44.496;11.324;2022-09-30T08:13:29;7.00;;;2.60;;
9294;SDS011;4686;44.496;11.324;2022-09-30T08:15:57;4.60;;;2.37;;
9294;SDS011;4686;44.496;11.324;2022-09-30T08:18:25;7.40;;;3.33;;
9294;SDS011;4686;44.496;11.324;2022-09-30T08:20:54;3.10;;;2.70;;
9294;SDS011;4686;44.496;11.324;2022-09-30T08:23:23;5.40;;;2.40;;
9294;SDS011;4686;44.496;11.324;2022-09-30T08:25:52;5.63;;;2.77;;
9294;SDS011;4686;44.496;11.324;2022-09-30T08:28:27;2.70;;;2.50;;
9294;SDS011;4686;44.496;11.324;2022-09-30T08:31:01;5.80;;;3.20;;
9294;SDS011;4686;44.496;11.324;2022-09-30T08:33:29;5.20;;;2.40;;
9294;SDS011;4686;44.496;11.324;2022-09-30T08:36:01;3.43;;;2.43;;
9294;SDS011;4686;44.496;11.324;2022-09-30T08:38:31;6.00;;;3.40;;
9294;SDS011;4686;44.496;11.324;2022-09-30T08:41:02;4.00;;;2.87;;
9294;SDS011;4686;44.496;11.324;2022-09-30T08:43:33;4.70;;;2.97;;
9294;SDS011;4686;44.496;11.324;2022-09-30T08:46:03;4.30;;;2.60;;
9294;SDS011;4686;44.496;11.324;2022-09-30T08:48:38;4.27;;;3.03;;
9294;SDS011;4686;44.496;11.324;2022-09-30T08:51:11;6.53;;;3.70;;
9294;SDS011;4686;44.496;11.324;2022-09-30T08:53:45;3.87;;;3.50;;
9294;SDS011;4686;44.496;11.324;2022-09-30T08:56:16;4.80;;;4.13;;
9294;SDS011;4686;44.496;11.324;2022-09-30T08:58:46;10.43;;;3.17;;
9294;SDS011;4686;44.496;11.324;2022-09-30T09:01:15;4.33;;;3.10;;
9294;SDS011;4686;44.496;11.324;2022-09-30T09:03:45;4.57;;;3.20;;
9294;SDS011;4686;44.496;11.324;2022-09-30T09:06:19;4.30;;;3.33;;
9294;SDS011;4686;44.496;11.324;2022-09-30T09:08:58;6.93;;;3.10;;
9294;SDS011;4686;44.496;11.324;2022-09-30T09:11:34;5.73;;;3.63;;
9294;SDS011;4686;44.496;11.324;2022-09-30T09:14:06;6.93;;;3.60;;
9294;SDS011;4686;44.496;11.324;2022-09-30T09:16:40;4.57;;;3.53;;
9294;SDS011;4686;44.496;11.324;2022-09-30T09:19:11;4.53;;;3.63;;
9294;SDS011;4686;44.496;11.324;2022-09-30T09:21:49;12.30;;;3.97;;
9294;SDS011;4686;44.496;11.324;2022-09-30T09:24:22;5.73;;;4.50;;
9294;SDS011;4686;44.496;11.324;2022-09-30T09:26:57;5.83;;;3.90;;
9294;SDS011;4686;44.496;11.324;2022-09-30T09:29:40;3.97;;;3.33;;
9294;SDS011;4686;44.496;11.324;2022-09-30T09:32:10;7.83;;;3.53;;
9294;SDS011;4686;44.496;11.324;2022-09-30T09:34:44;3.70;;;2.87;;
9294;SDS011;4686;44.496;11.324;2022-09-30T09:37:19;5.13;;;3.97;;
9294;SDS011;4686;44.496;11.324;2022-09-30T09:40:08;3.00;;;2.70;;
9294;SDS011;4686;44.496;11.324;2022-09-30T09:42:41;7.67;;;5.70;;
9294;SDS011;4686;44.496;11.324;2022-09-30T09:45:14;6.50;;;4.27;;
9294;SDS011;4686;44.496;11.324;2022-09-30T09:47:48;4.13;;;3.73;;
9294;SDS011;4686;44.496;11.324;2022-09-30T09:50:16;6.20;;;3.90;;
9294;SDS011;4686;44.496;11.324;2022-09-30T09:52:56;4.27;;;3.27;;
9294;SDS011;4686;44.496;11.324;2022-09-30T09:55:26;5.47;;;3.70;;
9294;SDS011;4686;44.496;11.324;2022-09-30T09:58:06;11.27;;;3.40;;
9294;SDS011;4686;44.496;11.324;2022-09-30T10:00:33;3.33;;;3.10;;
9294;SDS011;4686;44.496;11.324;2022-09-30T10:03:18;8.33;;;4.07;;
9294;SDS011;4686;44.496;11.324;2022-09-30T10:05:57;5.83;;;4.10;;
9294;SDS011;4686;44.496;11.324;2022-09-30T10:08:27;5.70;;;4.53;;
9294;SDS011;4686;44.496;11.324;2022-09-30T10:10:57;4.87;;;2.90;;
9294;SDS011;4686;44.496;11.324;2022-09-30T10:13:25;8.53;;;3.80;;
9294;SDS011;4686;44.496;11.324;2022-09-30T10:15:53;3.67;;;3.30;;
9294;SDS011;4686;44.496;11.324;2022-09-30T10:18:26;5.20;;;3.37;;
9294;SDS011;4686;44.496;11.324;2022-09-30T10:20:58;3.73;;;3.23;;
9294;SDS011;4686;44.496;11.324;2022-09-30T10:23:29;6.63;;;4.17;;
9294;SDS011;4686;44.496;11.324;2022-09-30T10:25:58;5.33;;;3.13;;
9294;SDS011;4686;44.496;11.324;2022-09-30T10:28:29;3.43;;;3.17;;
9294;SDS011;4686;44.496;11.324;2022-09-30T10:31:00;5.33;;;3.17;;
9294;SDS011;4686;44.496;11.324;2022-09-30T10:33:29;6.70;;;3.47;;
9294;SDS011;4686;44.496;11.324;2022-09-30T10:36:05;4.77;;;3.13;;
9294;SDS011;4686;44.496;11.324;2022-09-30T10:38:34;5.83;;;3.13;;
9294;SDS011;4686;44.496;11.324;2022-09-30T10:41:03;4.17;;;3.17;;
9294;SDS011;4686;44.496;11.324;2022-09-30T10:43:32;4.47;;;2.97;;
9294;SDS011;4686;44.496;11.324;2022-09-30T10:46:02;6.03;;;3.53;;
9294;SDS011;4686;44.496;11.324;2022-09-30T10:48:31;6.37;;;3.73;;
9294;SDS011;4686;44.496;11.324;2022-09-30T10:51:00;4.40;;;3.20;;
9294;SDS011;4686;44.496;11.324;2022-09-30T10:53:27;4.33;;;3.00;;
9294;SDS011;4686;44.496;11.324;2022-09-30T10:55:57;4.47;;;3.07;;
9294;SDS011;4686;44.496;11.324;2022-09-30T10:58:30;6.80;;;3.20;;
9294;SDS011;4686;44.496;11.324;2022-09-30T11:01:02;9.60;;;3.20;;
9294;SDS011;4686;44.496;11.324;2022-09-30T11:03:33;3.33;;;3.03;;
9294;SDS011;4686;44.496;11.324;2022-09-30T11:06:03;8.83;;;3.17;;
9294;SDS011;4686;44.496;11.324;2022-09-30T11:08:34;4.53;;;2.97;;
9294;SDS011;4686;44.496;11.324;2022-09-30T11:11:04;4.10;;;3.63;;
9294;SDS011;4686;44.496;11.324;2022-09-30T11:13:35;4.37;;;2.97;;
9294;SDS011;4686;44.496;11.324;2022-09-30T11:16:04;4.30;;;3.33;;
9294;SDS011;4686;44.496;11.324;2022-09-30T11:18:33;5.20;;;3.60;;
9294;SDS011;4686;44.496;11.324;2022-09-30T11:21:02;4.87;;;3.80;;
9294;SDS011;4686;44.496;11.324;2022-09-30T11:23:33;3.20;;;3.00;;
9294;SDS011;4686;44.496;11.324;2022-09-30T11:26:04;8.23;;;3.50;;
9294;SDS011;4686;44.496;11.324;2022-09-30T11:28:35;5.23;;;3.20;;
9294;SDS011;4686;44.496;11.324;2022-09-30T11:31:07;10.73;;;3.50;;
9294;SDS011;4686;44.496;11.324;2022-09-30T11:33:48;3.50;;;3.10;;
9294;SDS011;4686;44.496;11.324;2022-09-30T11:36:22;5.40;;;3.47;;
9294;SDS011;4686;44.496;11.324;2022-09-30T11:39:05;5.20;;;3.30;;
9294;SDS011;4686;44.496;11.324;2022-09-30T11:41:37;5.40;;;3.90;;
9294;SDS011;4686;44.496;11.324;2022-09-30T11:44:12;6.30;;;4.20;;
9294;SDS011;4686;44.496;11.324;2022-09-30T11:46:52;5.10;;;4.60;;
9294;SDS011;4686;44.496;11.324;2022-09-30T11:49:25;6.97;;;5.03;;
9294;SDS011;4686;44.496;11.324;2022-09-30T11:51:56;6.47;;;4.70;;
9294;SDS011;4686;44.496;11.324;2022-09-30T11:54:31;7.70;;;4.00;;
9294;SDS011;4686;44.496;11.324;2022-09-30T11:57:05;5.00;;;4.43;;
9294;SDS011;4686;44.496;11.324;2022-09-30T11:59:37;7.07;;;4.67;;
9294;SDS011;4686;44.496;11.324;2022-09-30T12:02:17;10.30;;;5.30;;
9294;SDS011;4686;44.496;11.324;2022-09-30T12:04:46;6.50;;;5.20;;
9294;SDS011;4686;44.496;11.324;2022-09-30T12:07:15;7.23;;;5.83;;
9294;SDS011;4686;44.496;11.324;2022-09-30T12:09:44;10.47;;;8.33;;
9294;SDS011;4686;44.496;11.324;2022-09-30T12:12:15;19.23;;;15.00;;
9294;SDS011;4686;44.496;11.324;2022-09-30T12:14:43;17.80;;;13.80;;
9294;SDS011;4686;44.496;11.324;2022-09-30T12:17:14;8.90;;;7.00;;
9294;SDS011;4686;44.496;11.324;2022-09-30T12:20:02;7.77;;;6.50;;
9294;SDS011;4686;44.496;11.324;2022-09-30T12:22:31;9.93;;;8.13;;
9294;SDS011;4686;44.496;11.324;2022-09-30T12:25:04;9.70;;;7.87;;
9294;SDS011;4686;44.496;11.324;2022-09-30T12:27:39;8.27;;;6.30;;
9294;SDS011;4686;44.496;11.324;2022-09-30T12:30:17;10.70;;;7.97;;
9294;SDS011;4686;44.496;11.324;2022-09-30T12:33:01;6.33;;;5.70;;
9294;SDS011;4686;44.496;11.324;2022-09-30T12:35:42;8.13;;;5.33;;
9294;SDS011;4686;44.496;11.324;2022-09-30T12:38:18;11.20;;;10.03;;
9294;SDS011;4686;44.496;11.324;2022-09-30T12:40:55;12.13;;;5.80;;
9294;SDS011;4686;44.496;11.324;2022-09-30T12:43:36;6.90;;;5.50;;
9294;SDS011;4686;44.496;11.324;2022-09-30T12:46:21;7.20;;;6.50;;
9294;SDS011;4686;44.496;11.324;2022-09-30T12:48:53;8.37;;;6.43;;
9294;SDS011;4686;44.496;11.324;2022-09-30T12:51:24;5.73;;;5.13;;
9294;SDS011;4686;44.496;11.324;2022-09-30T12:53:55;12.27;;;8.07;;
9294;SDS011;4686;44.496;11.324;2022-09-30T12:56:24;10.00;;;6.33;;
9294;SDS011;4686;44.496;11.324;2022-09-30T12:58:53;8.33;;;5.20;;
9294;SDS011;4686;44.496;11.324;2022-09-30T13:01:24;8.47;;;6.83;;
9294;SDS011;4686;44.496;11.324;2022-09-30T13:03:52;6.87;;;5.10;;
9294;SDS011;4686;44.496;11.324;2022-09-30T13:09:32;8.03;;;7.23;;
9294;SDS011;4686;44.496;11.324;2022-09-30T13:12:16;6.23;;;5.67;;
9294;SDS011;4686;44.496;11.324;2022-09-30T13:20:49;8.13;;;6.47;;
9294;SDS011;4686;44.496;11.324;2022-09-30T13:23:35;7.20;;;6.50;;
9294;SDS011;4686;44.496;11.324;2022-09-30T13:26:03;8.07;;;7.13;;
9294;SDS011;4686;44.496;11.324;2022-09-30T13:28:36;7.70;;;6.90;;
9294;SDS011;4686;44.496;11.324;2022-09-30T13:33:47;8.70;;;7.80;;
9294;SDS011;4686;44.496;11.324;2022-09-30T13:36:37;11.57;;;8.67;;
9294;SDS011;4686;44.496;11.324;2022-09-30T13:41:49;9.33;;;7.10;;
9294;SDS011;4686;44.496;11.324;2022-09-30T13:44:23;9.07;;;6.50;;
9294;SDS011;4686;44.496;11.324;2022-09-30T13:46:53;7.53;;;6.47;;
9294;SDS011;4686;44.496;11.324;2022-09-30T13:49:21;6.53;;;5.93;;
9294;SDS011;4686;44.496;11.324;2022-09-30T13:51:58;8.63;;;7.43;;
9294;SDS011;4686;44.496;11.324;2022-09-30T13:54:28;8.00;;;6.60;;
9294;SDS011;4686;44.496;11.324;2022-09-30T13:57:11;10.00;;;6.50;;
9294;SDS011;4686;44.496;11.324;2022-09-30T13:59:46;7.60;;;6.60;;
9294;SDS011;4686;44.496;11.324;2022-09-30T14:02:37;6.97;;;6.27;;
9294;SDS011;4686;44.496;11.324;2022-09-30T14:08:20;8.70;;;6.10;;
9294;SDS011;4686;44.496;11.324;2022-09-30T14:10:54;8.30;;;6.93;;
9294;SDS011;4686;44.496;11.324;2022-09-30T14:13:30;8.40;;;6.10;;
9294;SDS011;4686;44.496;11.324;2022-09-30T14:16:09;8.30;;;7.20;;
9294;SDS011;4686;44.496;11.324;2022-09-30T14:27:11;7.23;;;6.50;;
9294;SDS011;4686;44.496;11.324;2022-09-30T14:29:50;8.37;;;6.80;;
9294;SDS011;4686;44.496;11.324;2022-09-30T14:32:31;16.73;;;13.00;;
9294;SDS011;4686;44.496;11.324;2022-09-30T14:35:31;6.60;;;6.10;;
9294;SDS011;4686;44.496;11.324;2022-09-30T14:38:16;8.10;;;7.30;;
9294;SDS011;4686;44.496;11.324;2022-09-30T14:41:01;8.20;;;6.40;;
9294;SDS011;4686;44.496;11.324;2022-09-30T14:43:39;7.90;;;7.07;;
9294;SDS011;4686;44.496;11.324;2022-09-30T14:46:09;9.60;;;7.00;;
9294;SDS011;4686;44.496;11.324;2022-09-30T14:48:52;26.03;;;22.00;;
9294;SDS011;4686;44.496;11.324;2022-09-30T14:51:26;9.50;;;8.60;;
9294;SDS011;4686;44.496;11.324;2022-09-30T14:53:57;10.70;;;6.90;;
9294;SDS011;4686;44.496;11.324;2022-09-30T14:56:27;8.97;;;8.07;;
9294;SDS011;4686;44.496;11.324;2022-09-30T15:01:56;29.23;;;24.30;;
9294;SDS011;4686;44.496;11.324;2022-09-30T15:04:26;13.00;;;11.63;;
9294;SDS011;4686;44.496;11.324;2022-09-30T15:07:08;12.40;;;8.33;;
9294;SDS011;4686;44.496;11.324;2022-09-30T15:09:39;11.73;;;7.70;;
9294;SDS011;4686;44.496;11.324;2022-09-30T15:12:09;20.00;;;17.37;;
9294;SDS011;4686;44.496;11.324;2022-09-30T15:14:44;17.57;;;15.70;;
9294;SDS011;4686;44.496;11.324;2022-09-30T15:17:28;15.97;;;11.60;;
9294;SDS011;4686;44.496;11.324;2022-09-30T15:20:21;17.63;;;14.17;;
9294;SDS011;4686;44.496;11.324;2022-09-30T15:23:06;10.20;;;9.40;;
9294;SDS011;4686;44.496;11.324;2022-09-30T15:25:42;19.60;;;16.10;;
9294;SDS011;4686;44.496;11.324;2022-09-30T15:28:10;16.17;;;11.53;;
9294;SDS011;4686;44.496;11.324;2022-09-30T15:30:38;14.43;;;12.53;;
9294;SDS011;4686;44.496;11.324;2022-09-30T15:33:13;16.57;;;10.77;;
9294;SDS011;4686;44.496;11.324;2022-09-30T15:35:42;9.57;;;8.53;;
9294;SDS011;4686;44.496;11.324;2022-09-30T15:38:14;12.33;;;9.87;;
9294;SDS011;4686;44.496;11.324;2022-09-30T15:40:57;11.30;;;9.53;;
9294;SDS011;4686;44.496;11.324;2022-09-30T15:43:43;10.53;;;9.53;;
9294;SDS011;4686;44.496;11.324;2022-09-30T15:46:32;11.27;;;9.97;;
9294;SDS011;4686;44.496;11.324;2022-09-30T15:51:55;12.50;;;10.77;;
9294;SDS011;4686;44.496;11.324;2022-09-30T15:54:42;12.33;;;11.13;;
9294;SDS011;4686;44.496;11.324;2022-09-30T16:00:00;13.43;;;12.13;;
9294;SDS011;4686;44.496;11.324;2022-09-30T16:02:40;15.70;;;13.77;;
9294;SDS011;4686;44.496;11.324;2022-09-30T16:05:17;17.37;;;15.60;;
9294;SDS011;4686;44.496;11.324;2022-09-30T16:07:50;17.70;;;15.90;;